createdAt,value
2018-11-27T00:01:25.736Z,91.93
2018-11-27T00:03:55.651Z,91.58
2018-11-27T00:06:25.933Z,91.49
2018-11-27T00:08:56.004Z,91.16
2018-11-27T00:11:27.637Z,91.56
2018-11-27T00:13:57.647Z,91.32
2018-11-27T00:16:27.718Z,91.59
2018-11-27T00:18:57.776Z,92.38
2018-11-27T00:21:27.795Z,91.53
2018-11-27T00:23:58.090Z,92.29
2018-11-27T00:26:28.151Z,91.74
2018-11-27T00:28:58.118Z,91.97
2018-11-27T00:31:28.042Z,92.37
2018-11-27T00:33:58.062Z,92.39
2018-11-27T00:36:28.302Z,92.46
2018-11-27T00:38:58.621Z,92.01
2018-11-27T00:41:29.276Z,92.09
2018-11-27T00:43:59.275Z,91.75
2018-11-27T00:46:29.449Z,92.33
2018-11-27T00:49:00.392Z,91.86
2018-11-27T00:51:30.422Z,92.37
2018-11-27T00:54:00.615Z,92.59
2018-11-27T00:56:30.694Z,92.05
2018-11-27T00:59:01.405Z,92.55
2018-11-27T01:01:32.147Z,92.50
2018-11-27T01:04:02.066Z,91.97
2018-11-27T01:06:32.859Z,92.33
2018-11-27T01:09:02.935Z,91.90
2018-11-27T01:11:32.907Z,92.20
2018-11-27T01:14:03.014Z,92.03
2018-11-27T01:16:33.570Z,91.46
2018-11-27T01:19:03.575Z,92.01
2018-11-27T01:21:34.287Z,91.91
2018-11-27T01:24:04.235Z,92.09
2018-11-27T01:26:35.470Z,92.72
2018-11-27T01:29:05.441Z,92.96
2018-11-27T01:31:36.178Z,91.83
2018-11-27T01:34:06.661Z,92.24
2018-11-27T01:36:36.664Z,92.36
2018-11-27T01:39:08.690Z,92.62
2018-11-27T01:41:39.213Z,91.41
2018-11-27T01:44:09.827Z,92.60
2018-11-27T01:46:40.238Z,92.75
2018-11-27T01:49:10.820Z,92.62
2018-11-27T01:51:41.227Z,92.25
2018-11-27T01:54:11.377Z,92.59
2018-11-27T01:56:41.351Z,92.67
2018-11-27T01:59:11.285Z,92.89
2018-11-27T02:01:41.252Z,92.62
2018-11-27T02:04:11.471Z,91.87
2018-11-27T02:06:41.435Z,92.76
2018-11-27T02:09:29.304Z,92.47
2018-11-27T02:11:59.461Z,93.41
2018-11-27T02:15:05.047Z,92.93
2018-11-27T02:17:35.227Z,92.52
2018-11-27T02:20:05.481Z,92.81
2018-11-27T02:22:35.446Z,93.52
2018-11-27T02:25:21.508Z,92.81
2018-11-27T02:27:51.503Z,93.78
2018-11-27T02:37:22.296Z,92.52
2018-11-27T02:39:52.310Z,93.14
2018-11-27T02:43:37.767Z,93.20
2018-11-27T02:46:51.264Z,92.66
2018-11-27T02:49:24.781Z,93.02
2018-11-27T02:52:57.578Z,93.27
2018-11-27T02:55:27.673Z,93.07
2018-11-27T03:01:07.122Z,93.80
2018-11-27T03:04:26.640Z,93.30
2018-11-27T03:07:44.504Z,93.32
2018-11-27T03:10:16.385Z,93.61
2018-11-27T03:12:46.326Z,94.02
2018-11-27T03:15:55.770Z,92.98
2018-11-27T03:18:25.707Z,93.51
2018-11-27T03:20:55.638Z,93.41
2018-11-27T03:23:27.518Z,94.06
2018-11-27T03:25:57.561Z,93.79
2018-11-27T03:28:27.576Z,93.28
2018-11-27T03:30:57.583Z,93.65
2018-11-27T03:33:27.590Z,93.60
2018-11-27T03:36:25.916Z,93.14
2018-11-27T03:39:09.672Z,93.48
2018-11-27T03:41:39.944Z,94.11
2018-11-27T03:44:09.897Z,93.29
2018-11-27T03:46:41.190Z,93.25
2018-11-27T03:49:39.734Z,93.08
2018-11-27T03:52:09.859Z,92.77
2018-11-27T03:54:39.981Z,93.15
2018-11-27T03:57:11.081Z,93.06
2018-11-27T03:59:41.904Z,93.08
2018-11-27T04:02:12.433Z,93.62
2018-11-27T04:04:42.935Z,93.08
2018-11-27T04:07:13.318Z,93.66
2018-11-27T04:09:43.319Z,93.08
2018-11-27T04:12:13.753Z,93.25
2018-11-27T04:14:43.731Z,93.00
2018-11-27T04:17:13.743Z,93.69
2018-11-27T04:19:44.734Z,93.14
2018-11-27T04:22:14.703Z,93.83
2018-11-27T04:24:44.949Z,93.00
2018-11-27T04:27:15.740Z,93.12
2018-11-27T04:29:45.699Z,93.13
2018-11-27T04:32:15.689Z,93.70
2018-11-27T04:34:46.173Z,92.83
2018-11-27T04:37:16.788Z,92.91
2018-11-27T04:39:46.978Z,92.77
2018-11-27T04:42:17.148Z,92.41
2018-11-27T04:44:47.373Z,92.56
2018-11-27T04:47:17.403Z,93.10
2018-11-27T04:49:47.652Z,92.10
2018-11-27T04:52:18.400Z,91.75
2018-11-27T04:54:48.382Z,91.57
2018-11-27T04:57:19.169Z,92.88
2018-11-27T04:59:49.356Z,92.68
2018-11-27T05:02:19.793Z,92.95
2018-11-27T05:04:50.275Z,93.09
2018-11-27T05:07:21.299Z,92.81
2018-11-27T05:09:51.267Z,92.49
2018-11-27T05:12:21.301Z,92.49
2018-11-27T05:14:51.477Z,92.88
2018-11-27T05:17:21.412Z,92.97
2018-11-27T05:19:51.415Z,92.21
2018-11-27T05:22:21.635Z,93.02
2018-11-27T05:24:51.609Z,93.28
2018-11-27T05:27:21.582Z,92.91
2018-11-27T05:29:51.590Z,92.98
2018-11-27T05:32:21.593Z,92.89
2018-11-27T05:34:51.752Z,92.96
2018-11-27T05:37:22.103Z,92.59
2018-11-27T05:39:52.256Z,92.30
2018-11-27T05:42:22.562Z,92.55
2018-11-27T05:44:52.516Z,92.26
2018-11-27T05:47:22.477Z,92.20
2018-11-27T05:49:53.474Z,92.36
2018-11-27T05:52:23.577Z,92.41
2018-11-27T05:54:53.708Z,92.59
2018-11-27T05:57:23.657Z,91.85
2018-11-27T05:59:53.630Z,92.46
2018-11-27T06:02:23.895Z,92.15
2018-11-27T06:04:55.705Z,92.34
2018-11-27T06:13:57.683Z,92.86
2018-11-27T06:16:27.837Z,92.62
2018-11-27T06:19:01.495Z,92.36
2018-11-27T06:21:34.460Z,92.84
2018-11-27T06:24:04.545Z,92.29
2018-11-27T06:26:34.518Z,92.01
2018-11-27T06:29:08.585Z,92.77
2018-11-27T06:31:38.569Z,92.28
2018-11-27T06:34:13.591Z,92.68
2018-11-27T06:36:45.290Z,92.77
2018-11-27T06:39:15.325Z,92.34
2018-11-27T06:41:45.349Z,92.70
2018-11-27T06:44:15.417Z,92.85
2018-11-27T06:46:45.436Z,92.32
2018-11-27T06:49:15.410Z,92.76
2018-11-27T06:51:45.384Z,92.67
2018-11-27T06:54:15.384Z,92.27
2018-11-27T06:56:45.596Z,92.87
2018-11-27T06:59:15.859Z,92.42
2018-11-27T07:01:45.842Z,92.69
2018-11-27T07:04:15.869Z,92.87
2018-11-27T07:06:46.232Z,93.17
2018-11-27T07:09:16.244Z,92.64
2018-11-27T07:11:46.346Z,92.69
2018-11-27T07:14:16.508Z,93.12
2018-11-27T07:16:46.565Z,92.59
2018-11-27T07:19:16.533Z,93.40
2018-11-27T07:21:46.827Z,93.19
2018-11-27T07:24:16.827Z,92.24
2018-11-27T07:26:46.794Z,92.68
2018-11-27T07:29:16.773Z,92.25
2018-11-27T07:31:47.145Z,92.91
2018-11-27T07:34:17.173Z,92.88
2018-11-27T07:36:47.151Z,92.63
2018-11-27T07:39:17.151Z,91.98
2018-11-27T07:41:47.212Z,92.32
2018-11-27T07:44:17.245Z,92.05
2018-11-27T07:46:47.313Z,93.01
2018-11-27T07:49:17.934Z,92.88
2018-11-27T07:51:48.355Z,92.54
2018-11-27T07:54:18.494Z,92.52
2018-11-27T07:56:48.450Z,92.69
2018-11-27T07:59:18.614Z,91.95
2018-11-27T08:01:48.608Z,92.80
2018-11-27T08:04:18.970Z,92.65
2018-11-27T08:06:48.975Z,92.14
2018-11-27T08:09:19.325Z,92.67
2018-11-27T08:11:49.402Z,92.59
2018-11-27T08:14:19.500Z,92.53
2018-11-27T08:16:49.670Z,92.66
2018-11-27T08:19:19.764Z,92.39
2018-11-27T08:21:49.989Z,92.29
2018-11-27T08:24:20.088Z,91.90
2018-11-27T08:26:50.256Z,92.00
2018-11-27T08:29:20.219Z,92.49
2018-11-27T08:31:50.637Z,92.44
2018-11-27T08:34:20.672Z,92.42
2018-11-27T08:36:50.757Z,92.66
2018-11-27T08:39:21.026Z,92.00
2018-11-27T08:41:51.042Z,92.49
2018-11-27T08:44:21.143Z,92.12
2018-11-27T08:46:51.155Z,93.68
2018-11-27T08:49:21.242Z,92.86
2018-11-27T08:51:51.398Z,92.58
2018-11-27T08:54:21.499Z,92.05
2018-11-27T08:56:51.488Z,91.86
2018-11-27T08:59:21.515Z,92.34
2018-11-27T09:01:51.507Z,92.59
2018-11-27T09:04:21.854Z,91.93
2018-11-27T09:06:51.937Z,92.91
2018-11-27T09:09:21.971Z,93.03
2018-11-27T09:11:52.224Z,92.59
2018-11-27T09:14:22.463Z,93.52
2018-11-27T09:16:52.462Z,93.25
2018-11-27T09:19:22.749Z,92.59
2018-11-27T09:21:52.813Z,92.77
2018-11-27T09:24:23.311Z,92.34
2018-11-27T09:26:53.351Z,92.13
2018-11-27T09:29:24.727Z,92.09
2018-11-27T09:31:53.796Z,92.42
2018-11-27T09:34:23.928Z,92.31
2018-11-27T09:36:54.352Z,92.57
2018-11-27T09:39:24.383Z,92.54
2018-11-27T09:41:54.748Z,91.97
2018-11-27T09:44:25.479Z,92.15
2018-11-27T09:46:55.503Z,92.07
2018-11-27T09:49:26.882Z,92.57
2018-11-27T09:51:56.978Z,91.82
2018-11-27T09:54:27.246Z,92.21
2018-11-27T09:57:28.094Z,91.65
2018-11-27T09:59:58.128Z,91.69
2018-11-27T10:02:30.363Z,91.84
2018-11-27T10:05:00.453Z,91.56
2018-11-27T10:07:30.396Z,91.62
2018-11-27T10:10:00.564Z,91.13
2018-11-27T10:12:36.812Z,91.57
2018-11-27T10:15:20.419Z,91.31
2018-11-27T10:17:54.108Z,91.11
2018-11-27T10:20:26.815Z,91.82
2018-11-27T10:23:02.732Z,91.21
2018-11-27T10:25:32.834Z,91.44
2018-11-27T10:28:05.938Z,91.26
2018-11-27T10:30:35.911Z,90.78
2018-11-27T10:33:12.310Z,91.32
2018-11-27T10:35:57.668Z,91.43
2018-11-27T10:38:27.732Z,90.98
2018-11-27T10:40:57.835Z,90.72
2018-11-27T10:43:30.515Z,91.15
2018-11-27T10:46:00.569Z,90.52
2018-11-27T10:48:30.570Z,89.96
2018-11-27T10:51:00.566Z,89.83
2018-11-27T10:53:30.503Z,88.28
2018-11-27T10:56:00.470Z,87.78
2018-11-27T10:58:30.564Z,87.20
2018-11-27T11:01:05.675Z,86.39
2018-11-27T11:03:36.487Z,86.63
2018-11-27T11:06:08.217Z,85.79
2018-11-27T11:08:38.213Z,85.75
2018-11-27T11:11:20.320Z,85.54
2018-11-27T11:13:50.534Z,85.01
2018-11-27T11:16:20.576Z,85.55
2018-11-27T11:18:50.644Z,84.90
2018-11-27T11:21:20.688Z,85.34
2018-11-27T11:24:13.413Z,85.24
2018-11-27T11:26:57.897Z,85.64
2018-11-27T11:29:39.389Z,84.96
2018-11-27T11:32:09.361Z,84.95
2018-11-27T11:34:39.616Z,84.83
2018-11-27T11:37:09.594Z,85.59
2018-11-27T11:39:57.697Z,84.98
2018-11-27T11:42:28.038Z,84.75
2018-11-27T11:44:58.101Z,84.83
2018-11-27T11:47:50.230Z,85.48
2018-11-27T11:50:24.831Z,84.43
2018-11-27T11:53:26.900Z,84.54
2018-11-27T11:56:20.964Z,85.46
2018-11-27T11:58:50.945Z,85.93
2018-11-27T12:01:21.031Z,85.95
2018-11-27T12:03:52.288Z,85.62
2018-11-27T12:06:53.915Z,85.89
2018-11-27T12:09:24.168Z,86.05
2018-11-27T12:11:54.287Z,85.10
2018-11-27T12:14:24.555Z,84.78
2018-11-27T12:16:54.914Z,85.54
2018-11-27T12:19:24.986Z,85.84
2018-11-27T12:21:55.031Z,85.57
2018-11-27T12:27:35.126Z,84.83
2018-11-27T12:30:08.805Z,85.29
2018-11-27T12:32:39.097Z,85.31
2018-11-27T12:35:16.352Z,84.57
2018-11-27T12:38:02.863Z,85.14
2018-11-27T12:40:46.077Z,85.25
2018-11-27T12:43:16.262Z,84.68
2018-11-27T12:45:46.545Z,84.48
2018-11-27T12:48:17.066Z,84.36
2018-11-27T12:53:52.344Z,85.67
2018-11-27T12:56:22.534Z,85.00
2018-11-27T12:58:52.687Z,83.21
2018-11-27T13:01:22.792Z,84.41
2018-11-27T13:04:05.658Z,84.30
2018-11-27T13:06:37.029Z,84.00
2018-11-27T13:09:11.440Z,84.20
2018-11-27T13:11:42.487Z,85.16
2018-11-27T13:14:12.632Z,85.11
2018-11-27T13:16:44.312Z,84.97
2018-11-27T13:19:14.615Z,85.04
2018-11-27T13:21:44.936Z,85.65
2018-11-27T13:24:15.077Z,84.35
2018-11-27T13:26:45.076Z,84.37
2018-11-27T13:29:18.287Z,85.31
2018-11-27T13:31:48.330Z,84.34
2018-11-27T13:34:18.439Z,84.74
2018-11-27T13:36:48.625Z,83.60
2018-11-27T13:39:41.560Z,84.66
2018-11-27T13:42:11.518Z,84.24
2018-11-27T13:44:41.682Z,84.29
2018-11-27T13:47:11.793Z,83.83
2018-11-27T13:49:41.852Z,84.16
2018-11-27T13:52:40.227Z,84.47
2018-11-27T13:55:21.236Z,84.32
2018-11-27T13:57:51.396Z,84.84
2018-11-27T14:00:21.951Z,83.81
2018-11-27T14:02:57.764Z,84.19
2018-11-27T14:05:28.081Z,83.46
2018-11-27T14:07:58.393Z,83.76
2018-11-27T14:10:28.503Z,83.34
2018-11-27T14:12:58.827Z,82.05
2018-11-27T14:15:29.157Z,83.21
2018-11-27T14:18:02.482Z,83.73
2018-11-27T14:20:32.899Z,83.30
2018-11-27T14:23:04.610Z,84.54
2018-11-27T14:25:34.693Z,84.34
2018-11-27T14:28:21.803Z,84.84
2018-11-27T14:30:50.978Z,83.99
2018-11-27T14:33:20.983Z,84.58
2018-11-27T14:35:50.985Z,84.88
2018-11-27T14:38:20.924Z,83.92
2018-11-27T14:40:51.127Z,84.20
2018-11-27T14:43:21.297Z,84.44
2018-11-27T14:45:51.302Z,83.51
2018-11-27T14:48:21.388Z,83.96
2018-11-27T14:50:51.494Z,84.34
2018-11-27T14:53:21.589Z,84.02
2018-11-27T14:55:52.176Z,83.92
2018-11-27T14:58:22.191Z,84.24
2018-11-27T15:00:52.354Z,84.81
2018-11-27T15:03:22.361Z,84.71
2018-11-27T15:05:52.361Z,85.26
2018-11-27T15:08:22.342Z,84.99
2018-11-27T15:10:52.642Z,84.31
2018-11-27T15:13:22.638Z,84.21
2018-11-27T15:15:52.586Z,84.90
2018-11-27T15:18:22.756Z,84.34
2018-11-27T15:20:52.853Z,83.06
2018-11-27T15:23:22.869Z,82.82
2018-11-27T15:25:52.826Z,83.15
2018-11-27T15:28:23.175Z,83.58
2018-11-27T15:30:53.863Z,84.67
2018-11-27T15:33:29.752Z,84.21
2018-11-27T15:35:59.753Z,84.28
2018-11-27T15:38:29.940Z,83.92
2018-11-27T15:41:04.844Z,84.86
2018-11-27T15:43:34.779Z,84.91
2018-11-27T15:46:04.874Z,84.68
2018-11-27T15:48:34.758Z,85.20
2018-11-27T15:51:04.861Z,84.37
2018-11-27T15:53:34.872Z,85.24
2018-11-27T15:56:04.888Z,85.18
2018-11-27T15:58:34.886Z,85.40
2018-11-27T16:01:05.534Z,85.57
2018-11-27T16:03:35.689Z,85.31
2018-11-27T16:06:10.723Z,84.47
2018-11-27T16:08:41.110Z,83.78
2018-11-27T16:11:11.237Z,84.14
2018-11-27T16:13:44.947Z,84.89
2018-11-27T16:16:15.558Z,84.87
2018-11-27T16:18:46.378Z,85.53
2018-11-27T16:21:16.524Z,85.33
2018-11-27T16:23:57.498Z,84.80
2018-11-27T16:26:45.437Z,85.60
2018-11-27T16:29:21.519Z,86.11
2018-11-27T16:31:51.661Z,85.09
2018-11-27T16:34:21.622Z,86.22
2018-11-27T16:36:52.350Z,86.00
2018-11-27T16:39:22.328Z,85.81
2018-11-27T16:41:52.337Z,85.69
2018-11-27T16:44:34.633Z,85.95
2018-11-27T16:47:04.922Z,85.86
2018-11-27T16:49:35.050Z,86.06
2018-11-27T16:55:48.417Z,86.25
2018-11-27T16:58:18.495Z,86.29
2018-11-27T17:01:12.555Z,86.33
2018-11-27T17:04:17.328Z,85.92
2018-11-27T17:06:47.330Z,85.65
2018-11-27T17:09:17.399Z,84.97
2018-11-27T17:11:47.497Z,85.26
2018-11-27T17:14:35.959Z,85.19
2018-11-27T17:17:16.314Z,85.13
2018-11-27T17:19:46.343Z,85.14
2018-11-27T17:22:16.277Z,85.51
2018-11-27T17:25:06.217Z,84.78
2018-11-27T17:30:44.635Z,85.75
2018-11-27T17:33:50.922Z,86.10
2018-11-27T17:36:24.605Z,85.23
2018-11-27T17:38:54.612Z,85.70
2018-11-27T17:41:24.512Z,85.78
2018-11-27T17:44:17.442Z,86.31
2018-11-27T17:46:47.390Z,86.53
2018-11-27T17:49:18.014Z,86.47
2018-11-27T17:51:49.011Z,86.82
2018-11-27T17:54:21.370Z,86.15
2018-11-27T17:56:51.568Z,86.62
2018-11-27T17:59:21.482Z,86.10
2018-11-27T18:01:51.439Z,86.49
2018-11-27T18:04:23.829Z,86.64
2018-11-27T18:06:53.838Z,86.42
2018-11-27T18:09:23.862Z,86.66
2018-11-27T18:11:53.960Z,87.20
2018-11-27T18:14:24.127Z,87.59
2018-11-27T18:16:54.458Z,87.08
2018-11-27T18:19:24.603Z,86.99
2018-11-27T18:21:54.820Z,87.40
2018-11-27T18:24:24.882Z,87.89
2018-11-27T18:26:54.894Z,87.53
2018-11-27T18:29:26.922Z,87.30
2018-11-27T18:31:58.341Z,87.25
2018-11-27T18:34:40.904Z,87.97
2018-11-27T18:37:10.908Z,87.38
2018-11-27T18:39:40.963Z,87.91
2018-11-27T18:42:17.060Z,87.74
2018-11-27T18:44:50.009Z,87.43
2018-11-27T18:47:20.014Z,86.93
2018-11-27T18:49:55.527Z,85.42
2018-11-27T18:52:26.911Z,86.48
2018-11-27T18:54:57.720Z,87.50
2018-11-27T18:57:29.144Z,87.31
2018-11-27T19:13:59.521Z,86.24
2018-11-27T19:16:30.212Z,84.87
2018-11-27T19:19:01.357Z,85.62
2018-11-27T19:21:31.623Z,84.94
2018-11-27T19:24:01.590Z,86.15
2018-11-27T19:26:31.708Z,84.76
2018-11-27T19:29:01.872Z,83.93
2018-11-27T19:31:31.950Z,85.54
2018-11-27T19:34:02.061Z,85.60
2018-11-27T19:36:32.258Z,86.71
2018-11-27T19:39:02.832Z,86.37
2018-11-27T19:41:32.879Z,85.97
2018-11-27T19:44:03.362Z,86.63
2018-11-27T19:49:58.774Z,85.02
2018-11-27T19:52:28.952Z,86.67
2018-11-27T19:54:59.416Z,86.63
2018-11-27T19:57:29.519Z,85.74
2018-11-27T19:59:59.658Z,85.57
2018-11-27T20:02:29.668Z,86.01
2018-11-27T20:04:59.781Z,86.56
2018-11-27T20:07:29.717Z,86.57
2018-11-27T20:10:00.082Z,87.18
2018-11-27T20:12:30.145Z,86.75
2018-11-27T20:15:00.253Z,86.75
2018-11-27T20:17:30.723Z,86.17
2018-11-27T20:20:01.009Z,86.22
2018-11-27T20:22:31.182Z,86.97
2018-11-27T20:25:02.852Z,85.80
2018-11-27T20:27:51.709Z,85.88
2018-11-27T20:30:25.119Z,85.76
2018-11-27T20:33:05.577Z,85.53
2018-11-27T20:35:35.610Z,85.00
2018-11-27T20:38:08.317Z,85.69
2018-11-27T20:40:39.426Z,86.09
2018-11-27T20:43:09.650Z,86.04
2018-11-27T20:45:39.618Z,86.92
2018-11-27T20:48:18.179Z,85.04
2018-11-27T20:50:50.924Z,85.40
2018-11-27T20:53:26.304Z,86.84
2018-11-27T20:55:56.793Z,85.56
2018-11-27T20:58:26.888Z,85.87
2018-11-27T21:00:56.954Z,85.89
2018-11-27T21:03:27.008Z,85.71
2018-11-27T21:05:56.954Z,85.48
2018-11-27T21:08:27.492Z,85.29
2018-11-27T21:10:58.004Z,86.33
2018-11-27T21:13:28.148Z,85.66
2018-11-27T21:15:58.291Z,84.50
2018-11-27T21:18:28.345Z,85.04
2018-11-27T21:20:58.341Z,85.11
2018-11-27T21:23:29.952Z,85.89
2018-11-27T21:26:22.543Z,85.21
2018-11-27T21:28:54.869Z,84.95
2018-11-27T21:31:25.629Z,86.72
2018-11-27T21:33:56.687Z,85.74
2018-11-27T21:36:26.840Z,85.56
2018-11-27T21:38:56.880Z,85.85
2018-11-27T21:41:26.955Z,86.41
2018-11-27T21:43:58.398Z,85.75
2018-11-27T21:46:33.217Z,85.62
2018-11-27T21:49:03.440Z,85.61
2018-11-27T21:51:33.550Z,86.41
2018-11-27T21:54:03.811Z,85.33
2018-11-27T21:56:34.493Z,85.52
2018-11-27T21:59:05.182Z,85.87
2018-11-27T22:01:35.623Z,85.17
2018-11-27T22:04:06.161Z,85.57
2018-11-27T22:06:36.466Z,86.19
2018-11-27T22:09:08.635Z,85.50
2018-11-27T22:11:39.363Z,85.37
2018-11-27T22:14:09.845Z,85.29
2018-11-27T22:16:40.248Z,85.87
2018-11-27T22:19:10.559Z,86.04
2018-11-27T22:21:42.140Z,85.76
2018-11-27T22:24:12.669Z,86.20
2018-11-27T22:26:43.069Z,86.39
2018-11-27T22:29:13.161Z,85.68
2018-11-27T22:31:43.729Z,86.04
2018-11-27T22:34:14.075Z,85.78
2018-11-27T22:36:45.611Z,84.91
2018-11-27T22:39:15.908Z,85.92
2018-11-27T22:41:46.560Z,85.47
2018-11-27T22:44:16.675Z,86.39
2018-11-27T22:46:49.097Z,85.73
2018-11-27T22:49:19.314Z,85.23
2018-11-27T22:51:51.408Z,85.98
2018-11-27T22:54:21.946Z,85.15
2018-11-27T22:56:52.231Z,85.97
2018-11-27T22:59:22.558Z,85.31
2018-11-27T23:01:52.616Z,85.75
2018-11-27T23:04:23.049Z,86.29
2018-11-27T23:06:53.108Z,86.94
2018-11-27T23:09:23.512Z,86.80
2018-11-27T23:11:53.592Z,86.70
2018-11-27T23:14:23.706Z,86.02
2018-11-27T23:16:54.206Z,85.56
2018-11-27T23:19:24.351Z,86.12
2018-11-27T23:21:54.374Z,86.66
2018-11-27T23:24:25.077Z,86.67
2018-11-27T23:26:55.092Z,85.92
2018-11-27T23:29:25.759Z,85.48
2018-11-27T23:31:56.023Z,86.03
2018-11-27T23:34:25.964Z,86.70
2018-11-27T23:36:56.402Z,87.05
2018-11-27T23:39:26.594Z,87.29
2018-11-27T23:41:56.654Z,86.88
2018-11-27T23:44:27.098Z,87.18
2018-11-27T23:46:57.157Z,86.34
2018-11-27T23:49:27.354Z,86.63
2018-11-27T23:51:57.529Z,87.50
2018-11-27T23:54:27.539Z,87.71
2018-11-27T23:56:57.565Z,86.44
2018-11-27T23:59:27.630Z,85.61
